Time;durP1;ratioP1;P1;durP2;ratioP2;P2;SDS_P1;SDS_P2;PMS_P1;PMS_P2;Temp;Humidity;BMP_temperature;BMP_pressure;BME280_temperature;BME280_humidity;BME280_pressure;Samples;Min_cycle;Max_cycle;Signal;HPM_P1;HPM_P2
2021/12/10 00:01:59;;;;;;;0.10;0.10;;;3.80;99.90;;;;;;5069456;28;20045;-77
2021/12/10 00:04:31;;;;;;;0.10;0.10;;;3.80;99.90;;;;;;5085683;28;20090;-78
2021/12/10 00:07:20;;;;;;;0.10;0.10;;;3.80;99.90;;;;;;5085455;28;20620;-78
2021/12/10 00:09:59;;;;;;;0.10;0.10;;;3.80;99.90;;;;;;5085339;28;20050;-77
2021/12/10 00:12:33;;;;;;;0.10;0.10;;;3.70;99.90;;;;;;5085343;28;20068;-77
2021/12/10 00:15:01;;;;;;;0.10;0.10;;;3.80;99.90;;;;;;5085179;28;20132;-79
2021/12/10 00:17:28;;;;;;;0.10;0.10;;;4.10;99.90;;;;;;5085280;28;20037;-79
2021/12/10 00:19:58;;;;;;;0.10;0.10;;;3.80;99.90;;;;;;5078353;28;20043;-78
2021/12/10 00:22:40;;;;;;;0.10;0.10;;;3.80;99.90;;;;;;5095317;28;20048;-79
2021/12/10 00:25:13;;;;;;;0.10;0.10;;;3.80;99.90;;;;;;5088163;28;20417;-78
2021/12/10 00:27:40;;;;;;;0.10;0.10;;;3.80;99.90;;;;;;5105102;28;20436;-77
2021/12/10 00:30:30;;;;;;;0.10;0.10;;;3.80;99.90;;;;;;5071671;28;20059;-79
2021/12/10 00:33:09;;;;;;;0.20;0.20;;;3.70;99.90;;;;;;5088218;28;20040;-79
2021/12/10 00:35:38;;;;;;;0.10;0.10;;;3.80;99.90;;;;;;5088242;28;20404;-79
2021/12/10 00:38:06;;;;;;;0.10;0.10;;;3.80;99.90;;;;;;5087963;28;20178;-78
2021/12/10 00:40:33;;;;;;;0.10;0.10;;;3.90;99.90;;;;;;5088789;28;20043;-79
2021/12/10 00:43:00;;;;;;;0.20;0.20;;;3.70;99.90;;;;;;5071046;28;20111;-79
2021/12/10 00:45:27;;;;;;;0.10;0.10;;;4.00;99.90;;;;;;5105179;28;20419;-78
2021/12/10 00:47:54;;;;;;;0.10;0.10;;;3.70;99.90;;;;;;5071536;28;20036;-77
2021/12/10 00:50:28;;;;;;;0.10;0.10;;;3.80;99.90;;;;;;5105042;28;20048;-79
2021/12/10 00:52:56;;;;;;;0.10;0.10;;;3.80;99.90;;;;;;5104493;28;20467;-78
2021/12/10 00:55:24;;;;;;;0.10;0.10;;;3.70;99.90;;;;;;5088196;28;20036;-78
2021/12/10 00:57:52;;;;;;;0.10;0.10;;;3.70;99.90;;;;;;5087585;28;20492;-79
2021/12/10 01:00:23;;;;;;;0.10;0.10;;;3.70;99.90;;;;;;5071580;28;20037;-79
2021/12/10 01:02:50;;;;;;;0.10;0.10;;;3.80;99.90;;;;;;5105115;28;20139;-78
2021/12/10 01:05:18;;;;;;;0.15;0.15;;;3.80;99.90;;;;;;5088262;28;20109;-79
2021/12/10 01:07:46;;;;;;;0.13;0.13;;;3.80;99.90;;;;;;5104692;28;20079;-79
2021/12/10 01:10:19;;;;;;;0.10;0.10;;;3.80;99.90;;;;;;5104644;28;20041;-77
2021/12/10 01:12:51;;;;;;;0.15;0.15;;;3.80;99.90;;;;;;5104837;28;20040;-78
2021/12/10 01:15:43;;;;;;;0.10;0.10;;;3.80;99.90;;;;;;5087863;28;20127;-78
2021/12/10 01:23:58;;;;;;;0.28;0.28;;;3.80;99.90;;;;;;5104683;28;20114;-79
2021/12/10 01:29:17;;;;;;;0.10;0.10;;;3.80;99.90;;;;;;5104546;28;20398;-77
2021/12/10 01:31:45;;;;;;;0.10;0.10;;;3.80;99.90;;;;;;5087789;28;20040;-78
2021/12/10 01:34:15;;;;;;;0.10;0.10;;;3.80;99.90;;;;;;5104110;28;20454;-78
2021/12/10 01:36:42;;;;;;;0.10;0.10;;;3.80;99.90;;;;;;5088212;28;20424;-79
2021/12/10 01:39:12;;;;;;;0.10;0.10;;;3.80;99.90;;;;;;5087714;28;20060;-78
2021/12/10 01:41:42;;;;;;;0.10;0.10;;;3.80;99.90;;;;;;5087971;28;20048;-78
2021/12/10 01:44:26;;;;;;;0.10;0.10;;;3.80;99.90;;;;;;5104041;28;20182;-79
2021/12/10 01:46:53;;;;;;;0.10;0.10;;;4.30;99.90;;;;;;5087687;28;20101;-78
2021/12/10 01:49:20;;;;;;;0.10;0.10;;;3.80;99.90;;;;;;5087329;28;20143;-78
2021/12/10 01:51:47;;;;;;;0.10;0.10;;;4.20;99.90;;;;;;5087615;28;20135;-79
2021/12/10 01:54:23;;;;;;;0.10;0.10;;;3.90;99.90;;;;;;5104119;28;20044;-78
2021/12/10 01:56:51;;;;;;;0.10;0.10;;;3.80;99.90;;;;;;5108156;28;20121;-79
2021/12/10 01:59:19;;;;;;;0.20;0.20;;;4.40;99.90;;;;;;5091177;28;20039;-78
2021/12/10 02:01:53;;;;;;;0.10;0.10;;;3.80;99.90;;;;;;5108242;28;20497;-78
2021/12/10 02:04:22;;;;;;;0.10;0.10;;;3.90;99.90;;;;;;5107705;28;20032;-79
2021/12/10 02:06:49;;;;;;;0.10;0.10;;;3.80;99.90;;;;;;5108254;28;20055;-78
2021/12/10 02:09:16;;;;;;;0.10;0.10;;;3.80;99.90;;;;;;5074291;28;20036;-78
2021/12/10 02:11:44;;;;;;;0.20;0.20;;;3.80;99.90;;;;;;5074649;28;20085;-79
2021/12/10 02:14:10;;;;;;;0.10;0.10;;;3.90;99.90;;;;;;5074428;28;20162;-79
2021/12/10 02:16:39;;;;;;;0.30;0.30;;;3.80;99.90;;;;;;5107547;28;20131;-78
2021/12/10 02:19:08;;;;;;;0.10;0.10;;;3.80;99.90;;;;;;5107655;28;20097;-78
2021/12/10 02:21:36;;;;;;;0.30;0.30;;;3.80;99.90;;;;;;5074576;28;20105;-78
2021/12/10 02:24:04;;;;;;;0.10;0.10;;;3.90;99.90;;;;;;5091193;28;20129;-77
2021/12/10 02:27:01;;;;;;;0.50;0.50;;;3.90;99.90;;;;;;5107661;28;20074;-78
2021/12/10 02:29:28;;;;;;;;;;;3.90;99.90;;;;;;5108204;28;20041;-78
2021/12/10 02:31:56;;;;;;;0.10;0.10;;;3.90;99.90;;;;;;5090819;28;19916;-77
2021/12/10 02:34:24;;;;;;;0.10;0.10;;;3.90;99.90;;;;;;5106993;28;20174;-78
2021/12/10 02:36:52;;;;;;;0.30;0.30;;;3.90;99.90;;;;;;5074221;28;20159;-79
2021/12/10 02:39:22;;;;;;;0.10;0.10;;;4.10;99.90;;;;;;5073922;28;20396;-78
2021/12/10 02:41:49;;;;;;;0.10;0.10;;;3.90;99.90;;;;;;5107437;28;20078;-78
2021/12/10 02:44:27;;;;;;;0.10;0.10;;;3.90;99.90;;;;;;5073542;28;20453;-79
2021/12/10 02:46:55;;;;;;;0.10;0.10;;;3.90;99.90;;;;;;5107674;28;20048;-79
2021/12/10 02:49:22;;;;;;;0.10;0.10;;;3.90;99.90;;;;;;5089990;28;20486;-78
2021/12/10 02:51:50;;;;;;;0.10;0.10;;;3.90;99.90;;;;;;5107097;28;20516;-78
2021/12/10 02:54:22;;;;;;;0.10;0.10;;;3.90;99.90;;;;;;5090219;28;20040;-78
2021/12/10 02:56:51;;;;;;;0.10;0.10;;;3.90;99.90;;;;;;5090917;28;20049;-78
2021/12/10 02:59:18;;;;;;;0.15;0.15;;;3.90;99.90;;;;;;5106409;28;20098;-79
2021/12/10 03:01:49;;;;;;;0.10;0.10;;;3.90;99.90;;;;;;5107365;28;20127;-78
2021/12/10 03:04:16;;;;;;;0.10;0.10;;;4.30;99.90;;;;;;5106643;28;20068;-79
2021/12/10 03:06:55;;;;;;;0.10;0.10;;;3.90;99.90;;;;;;5106564;28;20489;-78
2021/12/10 03:09:23;;;;;;;0.10;0.10;;;3.90;99.90;;;;;;5089719;28;20044;-77
2021/12/10 03:11:52;;;;;;;0.20;0.20;;;4.30;99.90;;;;;;5090231;28;20040;-77
2021/12/10 03:14:22;;;;;;;0.10;0.10;;;3.90;99.90;;;;;;5090035;28;20048;-77
2021/12/10 03:16:52;;;;;;;0.10;0.10;;;3.90;99.90;;;;;;5106610;28;20044;-77
2021/12/10 03:19:20;;;;;;;0.13;0.13;;;3.90;99.90;;;;;;5089284;28;20059;-79
2021/12/10 03:21:47;;;;;;;0.30;0.30;;;3.90;99.90;;;;;;5089861;28;20041;-78
2021/12/10 03:24:16;;;;;;;0.20;0.20;;;3.90;99.90;;;;;;5089443;28;20782;-79
2021/12/10 03:26:43;;;;;;;0.10;0.10;;;3.90;99.90;;;;;;5089849;28;20048;-78
2021/12/10 03:29:10;;;;;;;0.10;0.10;;;3.80;99.90;;;;;;5089458;28;20055;-78
2021/12/10 03:31:37;;;;;;;0.10;0.10;;;4.00;99.90;;;;;;5089621;28;20048;-78
2021/12/10 03:34:05;;;;;;;0.20;0.20;;;3.90;99.90;;;;;;5089695;28;20048;-78
2021/12/10 03:36:32;;;;;;;0.10;0.10;;;4.10;99.90;;;;;;5105820;28;20048;-79
2021/12/10 03:38:59;;;;;;;0.17;0.17;;;4.20;99.90;;;;;;5106653;28;20037;-77
2021/12/10 03:41:26;;;;;;;0.10;0.10;;;3.80;99.90;;;;;;5088834;28;20040;-79
2021/12/10 03:43:54;;;;;;;0.10;0.10;;;3.80;99.90;;;;;;5106250;28;20052;-75
2021/12/10 03:46:23;;;;;;;0.10;0.10;;;3.80;99.90;;;;;;5105518;28;20468;-77
2021/12/10 03:48:50;;;;;;;0.10;0.10;;;4.50;99.90;;;;;;5105671;28;20654;-77
2021/12/10 03:51:22;;;;;;;0.10;0.10;;;3.90;99.90;;;;;;5072056;28;20091;-77
2021/12/10 03:53:49;;;;;;;0.10;0.10;;;3.80;99.90;;;;;;5106114;28;20119;-76
2021/12/10 03:56:20;;;;;;;0.10;0.10;;;3.90;99.90;;;;;;5105188;28;20052;-76
2021/12/10 03:58:48;;;;;;;0.10;0.10;;;3.80;99.90;;;;;;5089106;28;20048;-76
2021/12/10 04:01:18;;;;;;;0.10;0.10;;;3.80;99.90;;;;;;5105713;28;20109;-76
2021/12/10 04:03:46;;;;;;;0.10;0.10;;;3.80;99.90;;;;;;5089021;28;20045;-77
2021/12/10 04:06:13;;;;;;;0.10;0.10;;;4.20;99.90;;;;;;5072270;28;20051;-76
2021/12/10 04:08:40;;;;;;;0.20;0.20;;;3.80;99.90;;;;;;5072380;28;20382;-78
2021/12/10 04:11:09;;;;;;;0.10;0.10;;;4.00;99.90;;;;;;5072597;28;20049;-77
2021/12/10 04:13:36;;;;;;;0.10;0.10;;;3.80;99.90;;;;;;5088386;28;20527;-76
2021/12/10 04:16:03;;;;;;;0.08;0.08;;;3.80;99.90;;;;;;5088778;28;20091;-76
2021/12/10 04:18:31;;;;;;;0.10;0.10;;;3.90;99.90;;;;;;5087840;28;20089;-77
2021/12/10 04:20:58;;;;;;;0.10;0.10;;;3.90;99.90;;;;;;5105207;28;20127;-76
2021/12/10 04:23:25;;;;;;;0.10;0.10;;;3.90;99.90;;;;;;5105221;28;20209;-77
2021/12/10 04:25:52;;;;;;;0.10;0.10;;;3.90;99.90;;;;;;5088630;28;20036;-77
2021/12/10 04:28:21;;;;;;;0.10;0.10;;;3.90;99.90;;;;;;5088412;28;20051;-79
2021/12/10 04:30:49;;;;;;;0.10;0.10;;;3.90;99.90;;;;;;5105252;28;20044;-77
2021/12/10 04:33:21;;;;;;;0.10;0.10;;;3.90;99.90;;;;;;5104931;28;20048;-76
2021/12/10 04:35:50;;;;;;;0.10;0.10;;;3.90;99.90;;;;;;5105487;28;20127;-76
2021/12/10 04:38:18;;;;;;;0.00;0.00;;;3.90;99.90;;;;;;5088223;28;20676;-76
2021/12/10 04:40:47;;;;;;;0.20;0.20;;;3.90;99.90;;;;;;5072033;28;20119;-76
2021/12/10 04:43:17;;;;;;;0.10;0.10;;;3.90;99.90;;;;;;5104914;28;20094;-76
2021/12/10 04:45:45;;;;;;;0.13;0.13;;;3.90;99.90;;;;;;5105046;28;20067;-76
2021/12/10 04:48:12;;;;;;;0.10;0.10;;;3.90;99.90;;;;;;5088052;28;20141;-77
2021/12/10 04:50:39;;;;;;;0.10;0.10;;;4.10;99.90;;;;;;5088371;28;20099;-77
2021/12/10 04:53:08;;;;;;;0.10;0.10;;;4.10;99.90;;;;;;5065764;28;20048;-78
2021/12/10 04:55:36;;;;;;;1.02;1.00;;;3.80;99.90;;;;;;5093761;28;20126;-77
2021/12/10 04:58:04;;;;;;;0.15;0.15;;;4.10;99.90;;;;;;5080119;28;20850;-77
2021/12/10 05:00:42;;;;;;;0.10;0.10;;;4.20;99.90;;;;;;5076782;28;20451;-77
2021/12/10 05:03:09;;;;;;;0.10;0.10;;;3.80;99.90;;;;;;5090920;28;20506;-77
2021/12/10 05:05:38;;;;;;;0.10;0.10;;;3.80;99.90;;;;;;5095912;28;20455;-77
2021/12/10 05:08:07;;;;;;;0.52;0.50;;;4.10;99.90;;;;;;5093780;28;20048;-76
2021/12/10 05:10:35;;;;;;;0.20;0.20;;;3.90;99.90;;;;;;5089680;28;20047;-76
2021/12/10 05:13:02;;;;;;;0.00;0.00;;;3.80;99.90;;;;;;5084672;28;20037;-78
2021/12/10 05:15:34;;;;;;;0.10;0.10;;;3.80;99.90;;;;;;5067968;28;20073;-76
2021/12/10 05:18:02;;;;;;;0.20;0.20;;;3.80;99.90;;;;;;5084599;28;20041;-77
2021/12/10 05:20:34;;;;;;;0.52;0.52;;;3.70;99.90;;;;;;5067794;28;20567;-76
2021/12/10 05:23:01;;;;;;;0.10;0.10;;;3.70;99.90;;;;;;5084514;28;20139;-77
2021/12/10 05:25:29;;;;;;;0.30;0.30;;;3.70;99.90;;;;;;5084211;28;20444;-76
2021/12/10 05:27:57;;;;;;;0.10;0.10;;;4.50;99.90;;;;;;5084473;28;20040;-77
2021/12/10 05:30:27;;;;;;;0.10;0.10;;;3.70;99.90;;;;;;5088124;28;20127;-77
2021/12/10 05:32:55;;;;;;;0.13;0.13;;;3.60;99.90;;;;;;5088692;28;20076;-77
2021/12/10 05:35:23;;;;;;;0.20;0.20;;;3.60;99.90;;;;;;5088606;28;20047;-76
2021/12/10 05:37:49;;;;;;;0.10;0.10;;;3.60;99.90;;;;;;5088035;28;20064;-76
2021/12/10 05:40:17;;;;;;;0.52;0.52;;;3.60;99.90;;;;;;5071982;28;20037;-76
2021/12/10 05:42:46;;;;;;;0.10;0.10;;;3.60;99.90;;;;;;5087819;28;20041;-77
2021/12/10 05:45:15;;;;;;;0.10;0.10;;;3.50;99.90;;;;;;5088099;28;20489;-78
2021/12/10 05:47:42;;;;;;;0.10;0.10;;;3.50;99.90;;;;;;5071670;28;20043;-76
2021/12/10 05:50:11;;;;;;;0.15;0.15;;;3.40;99.90;;;;;;5087897;28;20045;-76
2021/12/10 05:52:38;;;;;;;0.10;0.10;;;3.40;99.90;;;;;;5087815;28;20055;-77
2021/12/10 05:55:05;;;;;;;0.10;0.10;;;3.30;99.90;;;;;;5088097;28;20045;-77
2021/12/10 05:57:32;;;;;;;0.10;0.10;;;3.30;99.90;;;;;;5087576;28;20501;-77
2021/12/10 05:59:59;;;;;;;0.10;0.10;;;3.30;99.90;;;;;;5087928;28;20072;-76
2021/12/10 06:02:26;;;;;;;0.10;0.10;;;3.30;99.90;;;;;;5071871;28;20037;-76
2021/12/10 06:04:53;;;;;;;0.20;0.20;;;3.30;99.90;;;;;;5071041;28;20524;-77
2021/12/10 06:07:20;;;;;;;0.10;0.10;;;3.20;99.90;;;;;;5055076;28;20049;-77
2021/12/10 06:09:46;;;;;;;0.10;0.10;;;3.20;99.90;;;;;;5071102;28;20048;-77
2021/12/10 06:12:13;;;;;;;0.10;0.10;;;3.20;99.90;;;;;;5071415;28;20139;-77
2021/12/10 06:14:40;;;;;;;0.20;0.20;;;3.20;99.90;;;;;;5070816;28;20083;-76
2021/12/10 06:17:07;;;;;;;0.10;0.10;;;3.20;99.90;;;;;;5088982;28;20047;-78
2021/12/10 06:19:34;;;;;;;0.10;0.10;;;3.10;99.90;;;;;;5087372;28;20037;-78
2021/12/10 06:22:01;;;;;;;0.10;0.10;;;3.30;99.90;;;;;;5071573;28;20048;-77
2021/12/10 06:24:27;;;;;;;0.10;0.10;;;3.00;99.90;;;;;;5087486;28;20448;-77
2021/12/10 06:26:54;;;;;;;0.10;0.10;;;3.00;99.90;;;;;;5087054;28;20053;-77
2021/12/10 06:29:24;;;;;;;0.10;0.10;;;2.90;99.90;;;;;;5054518;28;20043;-77
2021/12/10 06:31:51;;;;;;;0.20;0.20;;;2.90;99.90;;;;;;5070699;28;20045;-78
2021/12/10 06:34:17;;;;;;;0.10;0.10;;;2.80;99.90;;;;;;5057150;28;20455;-77
2021/12/10 06:36:44;;;;;;;0.20;0.20;;;2.70;99.90;;;;;;5075838;28;20041;-78
2021/12/10 06:39:11;;;;;;;0.10;0.10;;;2.70;99.90;;;;;;5064504;28;20025;-78
2021/12/10 06:41:38;;;;;;;0.20;0.20;;;3.00;99.90;;;;;;5056001;28;20041;-78
2021/12/10 06:44:06;;;;;;;0.10;0.10;;;2.60;99.90;;;;;;5054045;28;20052;-77
2021/12/10 06:46:34;;;;;;;0.10;0.10;;;2.60;99.90;;;;;;5086628;28;20502;-78
2021/12/10 06:49:01;;;;;;;0.10;0.10;;;2.50;99.90;;;;;;5070266;28;20139;-77
2021/12/10 06:51:28;;;;;;;0.10;0.10;;;2.50;99.90;;;;;;5087017;28;20052;-77
2021/12/10 06:53:54;;;;;;;0.10;0.10;;;2.40;99.90;;;;;;5086802;28;20052;-78
2021/12/10 06:56:25;;;;;;;0.10;0.10;;;2.40;99.90;;;;;;5070241;28;20371;-79
2021/12/10 06:58:52;;;;;;;0.10;0.10;;;2.60;99.90;;;;;;5070629;28;20041;-77
2021/12/10 07:01:27;;;;;;;0.10;0.10;;;2.90;99.90;;;;;;5080673;28;20452;-77
2021/12/10 07:03:56;;;;;;;0.10;0.10;;;2.20;99.90;;;;;;5086279;28;20079;-77
2021/12/10 07:06:25;;;;;;;0.10;0.10;;;2.20;99.90;;;;;;5086737;28;20044;-79
2021/12/10 07:08:53;;;;;;;0.10;0.10;;;2.50;99.90;;;;;;5086427;28;20055;-79
2021/12/10 07:11:21;;;;;;;0.10;0.10;;;2.20;99.90;;;;;;5086645;28;20049;-79
2021/12/10 07:13:51;;;;;;;0.20;0.20;;;2.20;99.90;;;;;;5086186;28;20064;-79
2021/12/10 07:16:21;;;;;;;0.10;0.10;;;2.20;99.90;;;;;;5086534;28;20080;-80
2021/12/10 07:18:49;;;;;;;0.20;0.20;;;2.10;99.90;;;;;;5085585;28;20044;-80
2021/12/10 07:21:16;;;;;;;0.20;0.20;;;2.10;99.90;;;;;;5086374;28;20048;-80
2021/12/10 07:23:43;;;;;;;0.20;0.20;;;2.10;99.90;;;;;;5052999;28;20687;-80
2021/12/10 07:26:12;;;;;;;0.20;0.20;;;2.10;99.90;;;;;;5097515;28;20043;-80
2021/12/10 07:28:39;;;;;;;0.10;0.10;;;2.10;99.90;;;;;;5094669;28;20037;-78
2021/12/10 07:31:08;;;;;;;0.20;0.20;;;2.40;99.90;;;;;;5096363;28;20405;-79
2021/12/10 07:33:35;;;;;;;0.10;0.10;;;2.40;99.90;;;;;;5097243;28;20045;-77
2021/12/10 07:36:03;;;;;;;0.25;0.25;;;2.00;99.90;;;;;;5090877;28;20040;-77
2021/12/10 07:38:31;;;;;;;0.10;0.10;;;2.70;99.90;;;;;;5080362;28;20167;-80
2021/12/10 07:40:58;;;;;;;0.30;0.30;;;2.00;99.90;;;;;;5094398;28;20043;-77
2021/12/10 07:43:25;;;;;;;0.20;0.20;;;2.00;99.90;;;;;;5095589;28;20505;-77
2021/12/10 07:45:52;;;;;;;0.20;0.20;;;2.00;99.90;;;;;;5058762;28;20055;-77
2021/12/10 07:48:22;;;;;;;0.10;0.10;;;2.00;99.90;;;;;;5100424;28;20040;-79
2021/12/10 07:50:55;;;;;;;0.20;0.20;;;2.00;99.90;;;;;;5075285;28;20049;-77
2021/12/10 07:53:23;;;;;;;0.15;0.15;;;3.00;99.90;;;;;;5085040;28;20041;-77
2021/12/10 07:55:51;;;;;;;0.17;0.17;;;2.00;99.90;;;;;;5085716;28;20563;-77
2021/12/10 07:58:18;;;;;;;0.10;0.10;;;2.10;99.90;;;;;;5085953;28;20040;-78
2021/12/10 08:00:47;;;;;;;0.10;0.10;;;2.00;99.90;;;;;;5052854;28;20033;-79
2021/12/10 08:03:15;;;;;;;0.20;0.20;;;2.10;99.90;;;;;;5095651;28;20051;-80
2021/12/10 08:05:43;;;;;;;0.20;0.20;;;2.10;99.90;;;;;;5094952;28;20475;-80
2021/12/10 08:08:10;;;;;;;0.17;0.17;;;2.10;99.90;;;;;;5093759;28;20113;-80
2021/12/10 08:10:39;;;;;;;0.10;0.10;;;2.20;99.90;;;;;;5069182;28;20136;-80
2021/12/10 08:13:06;;;;;;;0.15;0.15;;;2.50;99.90;;;;;;5101691;28;20493;-78
2021/12/10 08:15:33;;;;;;;0.10;0.10;;;2.10;99.90;;;;;;5080631;28;20033;-79
2021/12/10 08:18:00;;;;;;;0.10;0.10;;;2.20;99.90;;;;;;5081104;28;20481;-79
2021/12/10 08:20:28;;;;;;;0.10;0.10;;;2.20;99.90;;;;;;5099479;28;20112;-77
2021/12/10 08:22:56;;;;;;;0.30;0.30;;;2.20;99.90;;;;;;5060143;28;20039;-79
2021/12/10 08:25:25;;;;;;;0.10;0.10;;;2.20;99.90;;;;;;5090819;28;20033;-80
2021/12/10 08:27:53;;;;;;;0.20;0.20;;;2.70;99.90;;;;;;5098844;28;20382;-80
2021/12/10 08:30:22;;;;;;;0.10;0.10;;;2.20;99.90;;;;;;5093965;28;20037;-79
2021/12/10 08:32:52;;;;;;;0.10;0.10;;;2.20;99.90;;;;;;5079389;28;20597;-77
2021/12/10 08:35:21;;;;;;;0.10;0.10;;;2.20;99.90;;;;;;5095483;28;20036;-79
2021/12/10 08:37:48;;;;;;;0.10;0.10;;;2.20;99.90;;;;;;5061588;28;20065;-77
2021/12/10 08:40:21;;;;;;;0.10;0.10;;;2.20;99.90;;;;;;5085680;28;20045;-78
2021/12/10 08:42:49;;;;;;;0.10;0.10;;;2.20;99.90;;;;;;5093969;28;20381;-80
2021/12/10 08:45:18;;;;;;;0.10;0.10;;;2.20;99.90;;;;;;5091728;28;20120;-80
2021/12/10 08:47:49;;;;;;;0.20;0.20;;;2.20;99.90;;;;;;5091580;28;20037;-80
2021/12/10 08:50:22;;;;;;;0.10;0.10;;;2.10;99.90;;;;;;5077070;28;20064;-79
2021/12/10 08:53:00;;;;;;;0.10;0.10;;;2.30;99.90;;;;;;5084796;28;20052;-78
2021/12/10 08:55:28;;;;;;;0.20;0.20;;;2.10;99.90;;;;;;5101842;28;20068;-80
2021/12/10 08:57:55;;;;;;;0.20;0.20;;;2.20;99.90;;;;;;5087198;28;20045;-78
2021/12/10 09:00:23;;;;;;;0.15;0.15;;;2.10;99.90;;;;;;5078452;28;20082;-78
2021/12/10 09:02:54;;;;;;;0.10;0.10;;;2.20;99.90;;;;;;5051870;28;20080;-78
2021/12/10 09:05:21;;;;;;;0.20;0.20;;;2.10;99.90;;;;;;5067343;28;20147;-78
2021/12/10 09:07:49;;;;;;;0.20;0.20;;;2.80;99.90;;;;;;5051916;28;20055;-79
2021/12/10 09:10:21;;;;;;;0.20;0.20;;;2.10;99.90;;;;;;5063899;28;20041;-80
2021/12/10 09:12:48;;;;;;;0.10;0.10;;;2.50;99.90;;;;;;5099142;28;20044;-78
2021/12/10 09:15:19;;;;;;;0.20;0.20;;;2.10;99.90;;;;;;5080744;28;20128;-77
2021/12/10 09:17:47;;;;;;;0.20;0.20;;;2.70;99.90;;;;;;5071772;28;20041;-79
2021/12/10 09:20:18;;;;;;;0.20;0.20;;;2.20;99.90;;;;;;5086506;28;20855;-80
2021/12/10 09:22:45;;;;;;;0.10;0.10;;;2.20;99.90;;;;;;5086847;28;20036;-80
2021/12/10 09:25:14;;;;;;;0.20;0.20;;;2.20;99.90;;;;;;5095917;28;20040;-79
2021/12/10 09:27:41;;;;;;;0.20;0.20;;;2.20;99.90;;;;;;5081683;28;20047;-81
2021/12/10 09:30:11;;;;;;;0.10;0.10;;;2.20;99.90;;;;;;5083608;28;20053;-78
2021/12/10 09:32:39;;;;;;;0.10;0.10;;;2.20;99.90;;;;;;5078968;28;20044;-78
2021/12/10 09:35:09;;;;;;;0.10;0.10;;;2.30;99.90;;;;;;5067142;28;20037;-80
2021/12/10 09:37:37;;;;;;;0.20;0.20;;;2.30;99.90;;;;;;5100741;28;20764;-78
2021/12/10 09:40:10;;;;;;;0.13;0.13;;;2.80;99.90;;;;;;5087083;28;20400;-80
2021/12/10 09:42:37;;;;;;;0.10;0.10;;;2.40;99.90;;;;;;5087783;28;20032;-80
2021/12/10 09:45:05;;;;;;;0.10;0.10;;;2.40;99.90;;;;;;5084691;28;20786;-80
2021/12/10 09:47:32;;;;;;;0.10;0.10;;;2.40;99.90;;;;;;5035858;28;20131;-79
2021/12/10 09:50:00;;;;;;;0.15;0.15;;;2.50;99.90;;;;;;5050620;28;21067;-78
2021/12/10 09:52:27;;;;;;;0.10;0.10;;;2.40;99.90;;;;;;5075669;28;20451;-78
2021/12/10 09:54:54;;;;;;;0.10;0.10;;;2.50;99.90;;;;;;5055841;28;20140;-78
2021/12/10 09:57:28;;;;;;;0.20;0.20;;;2.50;99.90;;;;;;5094517;28;20034;-80
2021/12/10 09:59:55;;;;;;;0.20;0.20;;;2.50;99.90;;;;;;5092324;28;20490;-78
2021/12/10 10:02:23;;;;;;;0.10;0.10;;;2.60;99.90;;;;;;5080134;28;20552;-78
2021/12/10 10:04:51;;;;;;;0.15;0.15;;;3.50;99.90;;;;;;5087278;28;20040;-79
2021/12/10 10:07:23;;;;;;;0.10;0.10;;;3.30;99.90;;;;;;5087286;28;20516;-78
2021/12/10 10:09:55;;;;;;;0.20;0.20;;;2.70;99.90;;;;;;5088056;28;20523;-79
2021/12/10 10:12:34;;;;;;;0.17;0.17;;;2.70;99.90;;;;;;5068533;28;20053;-78
2021/12/10 10:15:07;;;;;;;0.20;0.20;;;2.70;99.90;;;;;;5084026;28;20103;-82
2021/12/10 10:17:34;;;;;;;0.20;0.20;;;2.70;99.90;;;;;;5090203;28;20045;-81
2021/12/10 10:20:01;;;;;;;0.10;0.10;;;2.70;99.90;;;;;;5055584;28;20874;-81
2021/12/10 10:22:29;;;;;;;0.10;0.10;;;2.70;99.90;;;;;;5071492;28;20048;-81
2021/12/10 10:24:57;;;;;;;0.20;0.20;;;2.80;99.90;;;;;;5070799;28;20059;-78
2021/12/10 10:27:30;;;;;;;0.20;0.20;;;3.10;99.90;;;;;;5086810;28;20098;-78
2021/12/10 10:30:28;;;;;;;0.10;0.10;;;2.80;99.90;;;;;;5106756;28;20128;-80
2021/12/10 10:32:57;;;;;;;0.10;0.10;;;2.80;99.90;;;;;;5105603;28;20565;-78
2021/12/10 10:35:34;;;;;;;0.20;0.20;;;2.80;99.90;;;;;;5090711;28;20066;-80
2021/12/10 10:38:02;;;;;;;0.10;0.10;;;2.90;99.90;;;;;;5106248;28;20052;-81
2021/12/10 10:40:36;;;;;;;0.10;0.10;;;3.30;99.90;;;;;;5090623;28;20060;-78
2021/12/10 10:43:06;;;;;;;0.20;0.20;;;2.90;99.90;;;;;;5098485;28;20048;-78
2021/12/10 10:45:37;;;;;;;0.10;0.10;;;2.90;99.90;;;;;;5103605;28;20059;-81
2021/12/10 10:48:06;;;;;;;0.10;0.10;;;2.90;99.90;;;;;;5089722;28;20036;-81
2021/12/10 10:50:39;;;;;;;0.17;0.17;;;3.00;99.90;;;;;;5090930;28;20513;-79
2021/12/10 10:53:11;;;;;;;0.20;0.20;;;3.00;99.90;;;;;;5107123;28;20115;-79
2021/12/10 10:55:50;;;;;;;0.20;0.20;;;3.20;99.90;;;;;;5104087;28;20048;-81
2021/12/10 10:58:17;;;;;;;0.10;0.10;;;3.10;99.90;;;;;;5087037;28;20037;-80
2021/12/10 11:01:24;;;;;;;0.10;0.10;;;3.10;99.90;;;;;;5071387;28;20059;-79
2021/12/10 11:03:57;;;;;;;0.10;0.10;;;3.20;99.90;;;;;;5041104;28;20102;-81
2021/12/10 11:06:37;;;;;;;0.10;0.10;;;3.20;99.90;;;;;;5070816;28;20056;-79
2021/12/10 11:09:27;;;;;;;0.10;0.10;;;3.30;99.90;;;;;;5077803;28;20040;-79
2021/12/10 11:11:55;;;;;;;0.20;0.20;;;3.30;99.90;;;;;;5089989;28;20102;-78
2021/12/10 11:14:32;;;;;;;0.10;0.10;;;3.90;99.90;;;;;;5090189;28;20040;-78
2021/12/10 11:17:15;;;;;;;0.10;0.10;;;3.40;99.90;;;;;;5094889;28;20131;-78
2021/12/10 11:20:29;;;;;;;0.10;0.10;;;3.50;99.90;;;;;;5083549;28;20483;-78
2021/12/10 11:23:08;;;;;;;0.10;0.10;;;3.50;99.90;;;;;;5092175;28;20466;-78
2021/12/10 11:25:42;;;;;;;0.10;0.10;;;3.80;99.90;;;;;;5097452;28;20511;-78
2021/12/10 11:28:19;;;;;;;0.10;0.10;;;3.50;99.90;;;;;;5091135;28;20048;-80
2021/12/10 11:30:50;;;;;;;0.10;0.10;;;3.60;99.90;;;;;;5086493;28;20114;-78
2021/12/10 11:33:21;;;;;;;0.15;0.15;;;3.60;99.90;;;;;;5089184;28;20037;-78
2021/12/10 11:35:59;;;;;;;0.10;0.10;;;3.70;99.90;;;;;;5075962;28;20072;-79
2021/12/10 11:38:29;;;;;;;0.15;0.15;;;3.70;99.90;;;;;;5106932;28;20496;-80
2021/12/10 11:40:59;;;;;;;0.10;0.10;;;3.90;99.90;;;;;;5089736;28;20040;-80
2021/12/10 11:48:43;;;;;;;0.10;0.10;;;3.80;99.90;;;;;;5106233;28;20048;-79
2021/12/10 11:51:21;;;;;;;0.20;0.20;;;3.90;99.90;;;;;;5089816;28;20445;-81
2021/12/10 11:53:55;;;;;;;0.10;0.10;;;3.80;99.90;;;;;;5090422;28;20036;-80
2021/12/10 11:56:27;;;;;;;0.10;0.10;;;3.90;99.90;;;;;;5105844;28;20051;-80
2021/12/10 11:59:08;;;;;;;0.10;0.10;;;3.90;99.90;;;;;;5090129;28;20048;-79
2021/12/10 12:01:52;;;;;;;0.10;0.10;;;3.90;99.90;;;;;;5089466;28;20072;-78
2021/12/10 12:04:24;;;;;;;0.20;0.20;;;3.90;99.90;;;;;;5105613;28;20071;-78
2021/12/10 12:07:13;;;;;;;0.10;0.10;;;4.40;99.90;;;;;;5106135;28;20044;-78
2021/12/10 12:09:42;;;;;;;0.10;0.10;;;3.90;99.90;;;;;;5084776;28;20107;-80
2021/12/10 12:12:13;;;;;;;0.10;0.10;;;3.90;99.90;;;;;;5084655;28;20037;-78
2021/12/10 12:14:47;;;;;;;0.10;0.10;;;3.90;99.90;;;;;;5096332;28;20063;-79
2021/12/10 12:17:33;;;;;;;0.13;0.13;;;3.90;99.90;;;;;;5077164;28;20113;-79
2021/12/10 12:20:01;;;;;;;0.10;0.10;;;3.90;99.90;;;;;;5099404;28;20040;-79
2021/12/10 12:25:40;;;;;;;0.10;0.10;;;3.90;99.90;;;;;;5090581;28;20045;-80
2021/12/10 12:28:11;;;;;;;0.10;0.10;;;4.00;99.90;;;;;;5068721;28;20101;-80
2021/12/10 12:31:14;;;;;;;0.10;0.10;;;3.90;99.90;;;;;;5094559;28;20083;-79
2021/12/10 12:33:57;;;;;;;0.10;0.10;;;3.90;99.90;;;;;;5084972;28;20056;-79
2021/12/10 12:36:34;;;;;;;0.10;0.10;;;3.90;99.90;;;;;;5084680;28;20409;-79
2021/12/10 12:39:04;;;;;;;0.10;0.10;;;3.90;99.90;;;;;;5070309;28;20038;-78
2021/12/10 12:41:36;;;;;;;0.20;0.20;;;3.90;99.90;;;;;;5078527;28;20090;-80
2021/12/10 12:44:23;;;;;;;0.10;0.10;;;3.90;99.90;;;;;;5091517;28;20095;-78
2021/12/10 12:46:59;;;;;;;0.10;0.10;;;3.90;99.90;;;;;;5085075;28;20048;-79
2021/12/10 12:49:31;;;;;;;0.10;0.10;;;3.90;99.90;;;;;;5087002;28;20075;-78
2021/12/10 12:52:12;;;;;;;0.10;0.10;;;3.90;99.90;;;;;;5092274;28;20531;-80
2021/12/10 12:55:00;;;;;;;0.10;0.10;;;3.90;99.90;;;;;;5083269;28;20044;-78
2021/12/10 12:58:08;;;;;;;0.10;0.10;;;3.90;99.90;;;;;;5076048;28;20032;-78
2021/12/10 13:01:04;;;;;;;0.17;0.17;;;3.90;99.90;;;;;;5066294;28;20497;-80
2021/12/10 13:03:58;;;;;;;0.10;0.10;;;3.90;99.90;;;;;;5084791;28;20045;-79
2021/12/10 13:06:56;;;;;;;0.10;0.10;;;3.90;99.90;;;;;;5079458;28;20060;-79
2021/12/10 13:09:38;;;;;;;0.10;0.10;;;3.90;99.90;;;;;;5085134;28;20045;-78
2021/12/10 13:12:25;;;;;;;0.10;0.10;;;3.80;99.90;;;;;;5084736;28;20044;-78
2021/12/10 13:14:58;;;;;;;0.20;0.20;;;4.00;99.90;;;;;;5085542;28;20040;-79
2021/12/10 13:17:37;;;;;;;0.10;0.10;;;3.90;99.90;;;;;;5084701;28;20052;-79
2021/12/10 13:20:12;;;;;;;0.20;0.20;;;3.90;99.90;;;;;;5068761;28;20033;-79
2021/12/10 13:22:40;;;;;;;0.10;0.10;;;3.90;99.90;;;;;;5080275;28;20124;-79
2021/12/10 13:25:12;;;;;;;0.10;0.10;;;3.80;99.90;;;;;;5088103;28;20047;-79
2021/12/10 13:27:40;;;;;;;0.10;0.10;;;3.90;99.90;;;;;;5085831;28;20056;-79
2021/12/10 13:30:10;;;;;;;0.10;0.10;;;3.80;99.90;;;;;;5082816;28;20037;-78
2021/12/10 13:32:39;;;;;;;0.10;0.10;;;3.80;99.90;;;;;;5052090;28;20036;-80
2021/12/10 13:35:07;;;;;;;0.10;0.10;;;3.80;99.90;;;;;;5084465;28;20033;-78